Marty C — WDC4362 — position and weather

sailwx.info

Track history (hours):
 
Tides and Currents Weather Stations Pressure Air Temp Water Temp Dewpoint Dewpoint Depression Visibility Wind Speed Wind Dir Waves Ship Positions

Marty C

Owner: Weeks Marine, Inc., Cranford, NJ. More information available from US FCC via Universal Licensing System and Coast Guard Vessel Documentation Center.

Last reported at 2018-Apr-16 15:13 UTC. Time now 2018-Apr-21 19:04 UTC.
Position N 40°41' W 074°05'.

; draft 6 m.

Type: Ship. MMSI: 367023570.

Date/timePositionNaut miles runAvg speedWind from/ knotsBaromVisibWave heightAir tempDewpointWater temp
2018-Apr-16 15:13N 40°41' W 074°05'0 0.7
2018-Apr-16 15:00N 40°41' W 074°04'0 0.3
2018-Apr-16 14:30N 40°41' W 074°05'0 0.4
2018-Apr-16 14:00N 40°41' W 074°04'0 0.0
2018-Apr-16 13:30N 40°41' W 074°04'0 0.0
2018-Apr-16 13:00N 40°41' W 074°04'0 0.0
2018-Apr-16 12:30N 40°41' W 074°04'0 0.4
2018-Apr-16 12:00N 40°40' W 074°05'0 0.1
2018-Apr-16 11:30N 40°41' W 074°05'  
2018-Apr-06 21:11N 40°41' W 074°05'0 0.6
2018-Apr-06 21:00N 40°41' W 074°04'1 1.4
2018-Apr-06 20:30N 40°40' W 074°04'2 4.6
2018-Apr-06 20:00N 40°41' W 074°01'2 4.6
2018-Apr-06 19:31N 40°43' W 073°58'2 3.7
2018-Apr-06 19:00N 40°45' W 073°58'2 3.3
2018-Apr-06 18:28N 40°46' W 073°57'1 2.1
2018-Apr-06 17:59N 40°47' W 073°56'1 1.4
2018-Apr-06 17:28N 40°47' W 073°55'1 2.2
2018-Apr-06 16:49N 40°48' W 073°54'0 0.1
2018-Apr-06 15:25N 40°48' W 073°54'  
Track history (hours):
 
Tides and Currents Weather Stations Pressure Air Temp Water Temp Dewpoint Dewpoint Depression Visibility Wind Speed Wind Dir Waves Ship Positions

Marty C

Owner: Weeks Marine, Inc., Cranford, NJ. More information available from US FCC via Universal Licensing System and Coast Guard Vessel Documentation Center.

Last reported at 2018-Apr-16 15:13 UTC. Time now 2018-Apr-21 19:04 UTC.
Position N 40°41' W 074°05'.

; draft 6 m.

Type: Ship. MMSI: 367023570.

Date/timePositionNaut miles runAvg speedWind from/ knotsBaromVisibWave heightAir tempDewpointWater temp
2018-Apr-16 15:13N 40°41' W 074°05'0 0.7
2018-Apr-16 15:00N 40°41' W 074°04'0 0.3
2018-Apr-16 14:30N 40°41' W 074°05'0 0.4
2018-Apr-16 14:00N 40°41' W 074°04'0 0.0
2018-Apr-16 13:30N 40°41' W 074°04'0 0.0
2018-Apr-16 13:00N 40°41' W 074°04'0 0.0
2018-Apr-16 12:30N 40°41' W 074°04'0 0.4
2018-Apr-16 12:00N 40°40' W 074°05'0 0.1
2018-Apr-16 11:30N 40°41' W 074°05'  
2018-Apr-06 21:11N 40°41' W 074°05'0 0.6
2018-Apr-06 21:00N 40°41' W 074°04'1 1.4
2018-Apr-06 20:30N 40°40' W 074°04'2 4.6
2018-Apr-06 20:00N 40°41' W 074°01'2 4.6
2018-Apr-06 19:31N 40°43' W 073°58'2 3.7
2018-Apr-06 19:00N 40°45' W 073°58'2 3.3
2018-Apr-06 18:28N 40°46' W 073°57'1 2.1
2018-Apr-06 17:59N 40°47' W 073°56'1 1.4
2018-Apr-06 17:28N 40°47' W 073°55'1 2.2
2018-Apr-06 16:49N 40°48' W 073°54'0 0.1
2018-Apr-06 15:25N 40°48' W 073°54'  

Dump ship's entire track history